Time;durP1;ratioP1;P1;durP2;ratioP2;P2;SDS_P1;SDS_P2;PMS_P1;PMS_P2;Temp;Humidity;BMP_temperature;BMP_pressure;BME280_temperature;BME280_humidity;BME280_pressure;Samples;Min_cycle;Max_cycle;Signal;HPM_P1;HPM_P2
2022/12/26 00:00:52;;;;;;;19.23;13.23;;;11.20;90.40;;;14.02;63.67;100793.28;5033315;28;20202;-57
2022/12/26 00:03:19;;;;;;;20.20;12.87;;;11.10;90.40;;;14.04;63.55;100785.97;5038665;28;20178;-56
2022/12/26 00:05:46;;;;;;;17.27;13.07;;;11.10;90.50;;;14.04;63.43;100784.13;5038833;28;20191;-55
2022/12/26 00:08:14;;;;;;;23.13;13.80;;;11.10;90.50;;;14.05;63.54;100767.22;5035606;28;20197;-55
2022/12/26 00:10:41;;;;;;;20.97;13.60;;;11.10;90.60;;;14.06;63.46;100778.63;5036447;28;20210;-52
2022/12/26 00:13:08;;;;;;;26.30;13.53;;;11.10;90.60;;;14.07;63.46;100780.28;5036467;28;20650;-52
2022/12/26 00:15:55;;;;;;;17.93;12.83;;;11.10;90.60;;;14.06;63.49;100789.22;5036830;28;20731;-53
2022/12/26 00:18:22;;;;;;;18.43;13.33;;;11.10;90.70;;;14.06;63.57;100794.50;5038019;28;20624;-52
2022/12/26 00:20:49;;;;;;;21.97;13.97;;;11.10;90.70;;;14.06;63.35;100795.34;5036435;28;20191;-53
2022/12/26 00:23:17;;;;;;;19.43;12.90;;;11.10;90.70;;;14.06;63.44;100790.03;5035312;28;20212;-54
2022/12/26 00:25:44;;;;;;;22.57;13.27;;;11.10;90.70;;;14.08;63.66;100781.91;5020330;28;20261;-54
2022/12/26 00:28:11;;;;;;;40.27;13.67;;;11.10;90.70;;;14.05;63.48;100777.81;5015936;28;20539;-53
2022/12/26 00:30:38;;;;;;;23.10;12.60;;;11.10;90.70;;;14.05;63.55;100763.75;5016356;28;20218;-55
2022/12/26 00:33:05;;;;;;;25.20;12.87;;;11.10;90.70;;;14.04;63.55;100762.97;5016159;28;20270;-55
2022/12/26 00:35:32;;;;;;;22.90;12.03;;;11.10;90.70;;;14.05;63.49;100761.09;5016126;28;20187;-52
2022/12/26 00:37:59;;;;;;;28.07;14.13;;;11.10;90.80;;;14.06;63.58;100770.69;5016918;28;20342;-53
2022/12/26 00:40:27;;;;;;;26.83;14.10;;;11.10;90.80;;;14.05;63.61;100769.88;5016438;28;20215;-54
2022/12/26 00:42:54;;;;;;;17.30;10.77;;;11.10;90.80;;;14.03;63.67;100771.06;5016403;28;20192;-52
2022/12/26 00:45:21;;;;;;;29.77;11.47;;;11.10;90.80;;;14.04;63.49;100775.38;5016232;28;20191;-53
2022/12/26 00:47:47;;;;;;;21.57;11.80;;;11.10;90.80;;;14.04;63.59;100785.97;5018273;28;20191;-55
2022/12/26 00:50:15;;;;;;;25.40;12.40;;;11.10;90.80;;;14.03;63.52;100800.19;5034288;28;20229;-52
2022/12/26 00:52:42;;;;;;;22.30;12.03;;;11.10;91.20;;;14.02;63.63;100803.88;5035502;28;20240;-54
2022/12/26 00:55:09;;;;;;;21.60;10.47;;;11.00;90.90;;;14.01;63.59;100792.47;5036189;28;20191;-52
2022/12/26 00:57:38;;;;;;;14.50;11.10;;;11.00;90.90;;;14.01;63.70;100788.97;5035884;28;20214;-53
2022/12/26 01:00:07;;;;;;;15.90;11.70;;;11.00;90.90;;;14.01;63.86;100791.63;5034833;28;20214;-52
2022/12/26 01:02:36;;;;;;;20.07;12.13;;;11.00;90.90;;;13.99;63.72;100783.06;5035441;28;20187;-53
2022/12/26 01:05:05;;;;;;;16.80;11.20;;;11.00;90.90;;;13.98;63.78;100786.72;5035028;28;20643;-52
2022/12/26 01:07:34;;;;;;;12.77;10.20;;;11.00;90.90;;;13.99;63.99;100793.66;5035694;28;20190;-53
2022/12/26 01:10:21;;;;;;;14.40;10.70;;;11.10;91.00;;;13.98;63.93;100792.00;5016855;28;20226;-51
2022/12/26 01:12:49;;;;;;;13.73;10.10;;;11.00;91.00;;;14.01;64.04;100783.69;5016004;28;20199;-53
2022/12/26 01:15:16;;;;;;;14.17;11.00;;;11.00;91.00;;;14.05;63.80;100784.94;5016217;28;20198;-51
2022/12/26 01:17:43;;;;;;;16.43;11.83;;;11.00;91.00;;;14.07;64.00;100773.13;5015425;28;20207;-53
2022/12/26 01:20:10;;;;;;;15.40;11.00;;;11.10;91.00;;;14.11;63.87;100784.16;5015336;28;20211;-54
2022/12/26 01:22:37;;;;;;;16.87;11.57;;;11.10;91.00;;;14.13;63.50;100784.78;5015939;28;20203;-53
2022/12/26 01:25:06;;;;;;;13.97;10.63;;;11.10;91.00;;;14.14;63.70;100789.06;5023592;28;20198;-54
2022/12/26 01:27:33;;;;;;;16.60;11.30;;;11.10;91.00;;;14.14;63.68;100781.91;5036132;28;20293;-52
2022/12/26 01:30:02;;;;;;;16.83;12.30;;;11.10;91.00;;;14.18;63.57;100785.00;5035438;28;20214;-53
2022/12/26 01:32:29;;;;;;;16.50;11.30;;;11.10;91.00;;;14.19;63.73;100786.66;5036111;28;20225;-53
2022/12/26 01:34:56;;;;;;;16.20;12.03;;;11.20;91.10;;;14.20;63.67;100781.16;5038253;28;20195;-52
2022/12/26 01:37:23;;;;;;;18.90;13.07;;;11.20;91.00;;;14.15;63.43;100780.91;5036551;28;20230;-54
2022/12/26 01:39:51;;;;;;;17.50;12.30;;;11.20;90.70;;;14.13;63.69;100790.06;5037404;28;20215;-55
2022/12/26 01:42:21;;;;;;;15.83;11.30;;;11.20;90.80;;;14.14;63.94;100786.41;5034873;28;20221;-54
2022/12/26 01:45:03;;;;;;;14.50;10.73;;;11.20;90.80;;;14.15;63.87;100777.44;5034710;28;20226;-52
2022/12/26 01:47:45;;;;;;;16.00;10.90;;;11.20;90.80;;;14.16;63.58;100789.69;5035344;28;20183;-53
2022/12/26 01:50:26;;;;;;;19.63;13.93;;;11.20;90.80;;;14.19;63.65;100786.66;5014899;28;20215;-53
2022/12/26 01:52:57;;;;;;;16.07;11.70;;;11.20;90.80;;;14.23;63.71;100790.53;5015444;28;20171;-53
2022/12/26 01:55:27;;;;;;;16.43;10.67;;;11.20;90.80;;;14.24;63.66;100789.50;5015405;28;20192;-53
2022/12/26 01:58:01;;;;;;;20.20;13.47;;;11.20;90.80;;;14.25;63.76;100799.91;5013980;28;20222;-52
2022/12/26 02:00:31;;;;;;;17.33;12.67;;;11.30;90.80;;;14.29;63.72;100796.88;5027258;28;20220;-52
2022/12/26 02:05:45;;;;;;;27.17;16.77;;;11.30;90.60;;;14.16;63.45;100810.88;5015962;28;20203;-55
2022/12/26 02:08:17;;;;;;;27.50;15.80;;;11.30;90.40;;;14.10;63.64;100806.34;5014272;28;20195;-52
2022/12/26 02:10:50;;;;;;;27.10;15.63;;;11.30;90.50;;;14.05;63.72;100798.16;5014782;28;20195;-52
2022/12/26 02:13:18;;;;;;;24.43;16.13;;;11.30;90.40;;;14.05;64.04;100800.81;5013961;28;20191;-52
2022/12/26 02:15:47;;;;;;;24.80;15.70;;;11.30;90.50;;;13.99;63.97;100798.94;5013383;28;20191;-53
2022/12/26 02:18:14;;;;;;;23.20;15.73;;;11.30;90.40;;;13.95;64.07;100803.00;5014714;28;20218;-54
2022/12/26 02:20:57;;;;;;;19.93;13.77;;;11.30;90.50;;;13.95;64.19;100810.94;5014631;28;20211;-52
2022/12/26 02:24:06;;;;;;;25.63;17.27;;;11.20;90.60;;;13.91;64.17;100801.75;5015012;28;20528;-52
2022/12/26 02:27:11;;;;;;;20.53;14.60;;;11.20;90.60;;;13.85;64.46;100798.06;5013914;28;20191;-52
2022/12/26 02:30:06;;;;;;;21.87;14.27;;;11.20;90.60;;;13.85;64.41;100799.88;5021491;28;20209;-52
2022/12/26 02:33:05;;;;;;;21.23;14.50;;;11.20;90.60;;;13.84;64.55;100806.19;5034209;28;20217;-52
2022/12/26 02:36:02;;;;;;;20.00;13.17;;;11.20;90.60;;;13.85;64.54;100803.34;5025861;28;20232;-53
2022/12/26 02:38:43;;;;;;;15.83;11.77;;;11.20;90.60;;;13.89;64.49;100799.31;5033400;28;20233;-52
2022/12/26 02:41:26;;;;;;;20.03;13.70;;;11.20;90.70;;;13.96;64.57;100799.34;5033833;28;20190;-55
2022/12/26 02:47:10;;;;;;;16.47;12.97;;;11.20;90.80;;;14.03;64.00;100795.72;5014336;28;20202;-52
2022/12/26 03:13:18;;;;;;;16.13;12.40;;;11.10;90.60;;;13.79;64.81;100787.41;5022564;28;20207;-52
2022/12/26 03:18:45;;;;;;;14.77;11.97;;;11.10;91.10;;;13.80;64.76;100789.88;5014010;28;20708;-54
2022/12/26 03:21:35;;;;;;;15.37;11.37;;;11.10;90.70;;;13.84;64.80;100790.31;5014043;28;20184;-53
2022/12/26 03:24:03;;;;;;;17.27;12.83;;;11.10;90.70;;;13.89;64.77;100793.19;5014640;28;20195;-52
2022/12/26 03:26:39;;;;;;;18.90;13.20;;;11.10;90.80;;;13.87;64.53;100792.56;5014280;28;20191;-52
2022/12/26 03:31:58;;;;;;;13.03;9.83;;;11.10;90.70;;;13.84;64.97;100795.59;5013952;28;20203;-53
2022/12/26 03:34:25;;;;;;;14.20;10.77;;;11.10;90.70;;;13.87;64.93;100803.16;5013594;28;20199;-52
2022/12/26 03:37:26;;;;;;;13.80;10.23;;;11.10;91.10;;;13.92;64.74;100803.38;5013768;28;20199;-52
2022/12/26 04:44:29;;;;;;;5.83;5.33;;;11.20;91.10;;;14.15;64.62;100815.34;5015944;28;20202;-52
2022/12/26 04:46:56;;;;;;;6.57;5.87;;;11.30;91.20;;;14.17;64.51;100825.72;5015920;28;20179;-53
2022/12/26 04:52:12;;;;;;;8.03;6.53;;;11.30;91.10;;;14.21;64.27;100816.38;5035813;28;20183;-55
2022/12/26 04:54:39;;;;;;;7.83;7.03;;;11.30;91.10;;;14.21;64.44;100825.13;5014563;28;20195;-53
2022/12/26 04:57:07;;;;;;;8.73;7.70;;;11.30;91.10;;;14.24;64.38;100829.22;5015588;28;20194;-55
2022/12/26 04:59:35;;;;;;;7.90;7.13;;;11.30;91.10;;;14.25;64.29;100823.75;5021676;28;20225;-54
2022/12/26 05:10:25;;;;;;;9.50;8.50;;;11.40;91.10;;;14.29;64.35;100833.94;5033869;28;20258;-54
2022/12/26 05:12:53;;;;;;;11.60;9.57;;;11.40;91.10;;;14.32;64.27;100836.22;5034159;28;20186;-56
2022/12/26 05:15:22;;;;;;;12.03;10.73;;;11.40;91.20;;;14.35;64.33;100852.53;5034442;28;20256;-54
2022/12/26 05:29:03;;;;;;;13.17;10.37;;;11.50;91.00;;;14.30;64.77;100815.25;5014004;28;20583;-53
2022/12/26 05:31:32;;;;;;;14.33;11.13;;;11.50;91.00;;;14.36;64.60;100825.03;5014279;28;20191;-53
2022/12/26 05:34:14;;;;;;;13.07;11.40;;;11.50;91.10;;;14.36;64.42;100822.38;5014724;28;20175;-54
2022/12/26 05:36:47;;;;;;;14.40;12.87;;;11.50;91.00;;;14.32;64.24;100817.69;5024856;28;20201;-55
2022/12/26 05:39:14;;;;;;;13.33;10.97;;;11.50;90.80;;;14.32;64.23;100815.03;5033701;28;20595;-54
2022/12/26 05:41:41;;;;;;;14.17;12.13;;;11.50;90.90;;;14.28;64.32;100814.59;5034035;28;20195;-53
2022/12/26 05:44:10;;;;;;;11.40;10.20;;;11.50;90.80;;;14.30;64.50;100809.94;5034080;28;20198;-51
2022/12/26 05:46:41;;;;;;;12.70;11.40;;;11.50;90.90;;;14.31;64.55;100814.22;5034078;28;20187;-56
2022/12/26 05:49:09;;;;;;;14.33;12.07;;;11.50;90.90;;;14.36;64.32;100816.28;5033575;28;20245;-53
2022/12/26 05:51:36;;;;;;;13.07;11.27;;;11.50;90.90;;;14.37;64.24;100816.09;5014302;28;20191;-54
2022/12/26 05:54:03;;;;;;;17.37;13.17;;;11.50;90.90;;;14.38;64.08;100819.56;5013974;28;20195;-54
2022/12/26 05:56:30;;;;;;;14.40;12.90;;;11.50;90.90;;;14.35;64.50;100826.06;5013947;28;20660;-55
2022/12/26 05:58:59;;;;;;;14.37;12.80;;;11.60;90.90;;;14.35;64.25;100804.88;5014013;28;20223;-55
2022/12/26 06:01:28;;;;;;;14.90;13.23;;;11.50;90.90;;;14.32;64.03;100826.44;5013361;28;20266;-54
2022/12/26 06:03:58;;;;;;;14.87;12.83;;;11.50;90.80;;;14.30;64.47;100827.63;5014026;28;20272;-55
2022/12/26 06:06:27;;;;;;;15.33;13.70;;;11.50;90.80;;;14.27;64.33;100829.66;5013591;28;20222;-55
2022/12/26 06:08:56;;;;;;;17.70;15.80;;;11.50;90.70;;;14.22;64.40;100836.53;5013712;28;20553;-55
2022/12/26 06:11:25;;;;;;;15.73;13.33;;;11.50;90.70;;;14.20;64.69;100838.56;5015795;28;20213;-55
2022/12/26 06:13:52;;;;;;;14.70;12.63;;;11.50;90.70;;;14.23;64.72;100832.88;5016872;28;20191;-55
2022/12/26 06:16:19;;;;;;;18.50;15.63;;;11.50;90.80;;;14.26;64.68;100824.56;5014998;28;20222;-55
2022/12/26 06:18:47;;;;;;;14.73;13.23;;;11.50;90.80;;;14.29;64.49;100826.78;5013965;28;20218;-55
2022/12/26 06:21:19;;;;;;;15.70;13.50;;;11.50;90.80;;;14.31;64.23;100819.50;5013842;28;20202;-55
2022/12/26 06:23:46;;;;;;;15.63;13.93;;;11.60;90.80;;;14.31;64.34;100829.31;5013935;28;20195;-54
2022/12/26 06:26:14;;;;;;;15.67;13.63;;;11.50;90.70;;;14.34;64.22;100835.00;5013545;28;20206;-53
2022/12/26 06:28:42;;;;;;;15.57;13.57;;;11.50;90.70;;;14.37;64.23;100850.50;5013625;28;20207;-55
2022/12/26 06:31:13;;;;;;;14.20;12.57;;;11.50;90.80;;;14.42;64.31;100850.75;5021787;28;20240;-55
2022/12/26 06:33:41;;;;;;;15.03;13.07;;;11.60;90.90;;;14.46;64.17;100859.91;5033496;28;20178;-55
2022/12/26 06:36:11;;;;;;;18.27;15.73;;;11.60;90.90;;;14.48;63.88;100863.19;5033515;28;20202;-53
2022/12/26 06:38:40;;;;;;;17.60;14.97;;;11.60;90.80;;;14.50;63.84;100860.34;5033081;28;20214;-54
2022/12/26 06:41:09;;;;;;;15.53;13.83;;;11.60;90.80;;;14.45;64.07;100863.59;5033448;28;20190;-52
2022/12/26 06:43:37;;;;;;;16.83;14.07;;;11.60;90.70;;;14.44;63.93;100858.47;5033650;28;20196;-54
2022/12/26 06:46:08;;;;;;;18.07;16.17;;;11.60;90.70;;;14.42;63.78;100858.69;5032689;28;20266;-53
2022/12/26 06:48:38;;;;;;;17.33;15.47;;;11.60;90.60;;;14.35;64.10;100862.31;5032983;28;20178;-55
2022/12/26 06:51:10;;;;;;;16.47;14.27;;;11.70;90.50;;;14.29;64.37;100869.16;5033405;28;20776;-54
2022/12/26 06:53:38;;;;;;;16.30;14.43;;;11.70;90.50;;;14.30;64.28;100873.50;5033732;28;20194;-54
2022/12/26 06:56:07;;;;;;;18.03;16.10;;;11.70;90.50;;;14.31;64.20;100872.47;5033296;28;20193;-52
2022/12/26 06:58:35;;;;;;;17.47;14.83;;;11.70;90.50;;;14.27;64.33;100866.72;5024604;28;20202;-52
2022/12/26 07:01:06;;;;;;;17.63;15.47;;;11.70;90.50;;;14.23;64.39;100877.91;5030865;28;20213;-55
2022/12/26 07:03:33;;;;;;;11.77;10.23;;;11.70;90.50;;;14.28;64.52;100856.94;5031792;28;20210;-53
2022/12/26 07:06:06;;;;;;;15.93;14.20;;;11.70;90.50;;;14.32;64.29;100854.75;5032843;28;20198;-54
2022/12/26 07:08:33;;;;;;;15.50;13.33;;;11.60;90.50;;;14.33;64.34;100853.75;5032718;28;20528;-55
2022/12/26 07:11:02;;;;;;;14.90;13.30;;;11.60;90.50;;;14.33;64.08;100864.34;5032835;28;20194;-53
2022/12/26 07:13:29;;;;;;;14.10;12.60;;;11.60;90.50;;;14.35;64.19;100857.84;5013832;28;20202;-52
2022/12/26 07:15:59;;;;;;;15.47;12.90;;;11.60;90.50;;;14.39;64.09;100864.38;5013304;28;20196;-53
2022/12/26 07:18:26;;;;;;;15.33;13.47;;;11.60;90.50;;;14.39;63.95;100859.06;5015589;28;20194;-55
2022/12/26 07:20:53;;;;;;;15.60;13.83;;;11.60;90.50;;;14.41;63.87;100861.50;5017256;28;20203;-52
2022/12/26 07:23:20;;;;;;;15.17;13.47;;;11.60;90.50;;;14.40;64.05;100855.41;5016999;28;20231;-55
2022/12/26 07:25:47;;;;;;;15.13;13.53;;;11.60;90.50;;;14.39;63.94;100859.06;5024029;28;20191;-53
2022/12/26 07:28:16;;;;;;;15.80;13.97;;;11.70;90.80;;;14.33;63.96;100848.44;5024629;28;20191;-52
2022/12/26 07:30:46;;;;;;;14.47;12.37;;;11.70;90.40;;;14.30;63.98;100847.00;5016878;28;20195;-53
2022/12/26 07:33:13;;;;;;;15.13;12.43;;;11.60;90.40;;;14.25;64.18;100849.38;5016808;28;20194;-52
2022/12/26 07:35:40;;;;;;;13.80;11.37;;;11.60;90.30;;;14.27;64.17;100848.19;5016805;28;20218;-55
2022/12/26 07:38:08;;;;;;;13.50;11.37;;;11.60;90.40;;;14.31;64.19;100845.97;5016591;28;20338;-53
2022/12/26 07:40:35;;;;;;;14.87;11.93;;;11.60;90.40;;;14.36;63.95;100843.56;5032801;28;20272;-52
2022/12/26 07:43:03;;;;;;;15.23;12.93;;;11.60;90.40;;;14.36;63.74;100837.47;5036714;28;20226;-54
2022/12/26 07:45:31;;;;;;;13.93;11.73;;;11.60;90.30;;;14.33;63.89;100836.03;5036407;28;20187;-53
2022/12/26 07:47:58;;;;;;;13.73;11.63;;;11.70;90.30;;;14.30;63.90;100835.56;5036478;28;20240;-53
2022/12/26 07:50:27;;;;;;;16.00;12.50;;;11.70;90.30;;;14.31;63.94;100834.59;5038377;28;20211;-55
2022/12/26 07:52:54;;;;;;;14.30;11.67;;;11.70;90.20;;;14.35;63.80;100831.34;5030965;28;20191;-53
2022/12/26 07:55:21;;;;;;;14.57;12.63;;;11.70;90.20;;;14.36;63.81;100838.28;5016503;28;20199;-54
2022/12/26 07:57:49;;;;;;;14.80;11.33;;;11.70;90.20;;;14.35;63.70;100835.81;5016735;28;20314;-53
2022/12/26 08:00:18;;;;;;;17.73;13.87;;;11.70;90.10;;;14.33;63.62;100835.22;5026854;28;20218;-55
2022/12/26 08:02:49;;;;;;;15.30;12.57;;;11.70;90.10;;;14.29;63.88;100842.69;5035871;28;20709;-53
2022/12/26 08:05:19;;;;;;;14.80;12.17;;;11.70;90.00;;;14.24;63.81;100839.81;5036128;28;20171;-54
2022/12/26 08:07:47;;;;;;;14.93;11.97;;;11.70;90.00;;;14.25;63.90;100852.03;5021292;28;20226;-54
2022/12/26 08:10:14;;;;;;;15.17;12.23;;;11.70;90.00;;;14.27;63.76;100860.59;5016099;28;20211;-52
2022/12/26 08:12:41;;;;;;;14.20;12.03;;;11.70;90.00;;;14.27;63.61;100860.59;5016320;28;20189;-52
2022/12/26 08:15:11;;;;;;;13.20;10.60;;;11.70;90.00;;;14.28;63.92;100864.91;5016213;28;20191;-52
2022/12/26 08:17:38;;;;;;;13.60;11.23;;;11.70;90.00;;;14.34;63.67;100866.78;5016257;28;20195;-54
2022/12/26 08:20:07;;;;;;;14.17;11.57;;;11.70;90.00;;;14.40;63.48;100871.31;5018414;28;20222;-53
2022/12/26 08:22:34;;;;;;;14.03;12.43;;;11.70;90.10;;;14.30;63.32;100860.25;5035955;28;20190;-53
2022/12/26 08:25:02;;;;;;;14.20;11.60;;;11.70;89.70;;;14.30;63.32;100864.69;5035832;28;20200;-53
2022/12/26 08:27:29;;;;;;;14.57;11.83;;;11.70;89.70;;;14.34;62.74;100866.78;5036142;28;20190;-53
2022/12/26 08:29:56;;;;;;;10.37;9.13;;;11.70;89.70;;;14.38;63.35;100865.38;5035355;28;20262;-53
2022/12/26 08:32:23;;;;;;;12.77;10.53;;;11.70;89.70;;;14.45;63.25;100866.25;5035703;28;20734;-53
2022/12/26 08:34:50;;;;;;;15.47;10.73;;;11.70;89.60;;;14.43;62.98;100860.31;5035349;28;20195;-54
2022/12/26 08:37:18;;;;;;;13.13;11.33;;;11.70;89.40;;;14.44;62.65;100861.94;5035038;28;20210;-55
2022/12/26 08:39:45;;;;;;;15.73;11.90;;;11.70;89.70;;;14.43;62.47;100857.66;5034895;28;20210;-54
2022/12/26 08:42:12;;;;;;;14.07;12.33;;;11.80;89.00;;;14.41;62.78;100857.03;5034997;28;20195;-53
2022/12/26 08:44:38;;;;;;;12.33;10.63;;;11.80;88.70;;;14.44;62.61;100861.94;5034971;28;20244;-53
2022/12/26 08:47:05;;;;;;;13.77;11.27;;;11.80;88.90;;;14.47;62.46;100866.03;5034098;28;20190;-55
2022/12/26 08:49:32;;;;;;;13.90;10.97;;;11.80;88.70;;;14.52;62.33;100874.22;5031176;28;20703;-55
2022/12/26 08:51:59;;;;;;;11.50;10.03;;;11.80;88.80;;;14.55;62.05;100877.28;5035227;28;20194;-53
2022/12/26 08:54:28;;;;;;;13.77;10.43;;;11.80;88.70;;;14.59;62.14;100881.19;5035102;28;20191;-54
2022/12/26 08:56:55;;;;;;;12.60;11.10;;;11.80;88.70;;;14.56;62.01;100878.91;5035067;28;20214;-53
2022/12/26 08:59:22;;;;;;;14.47;12.40;;;11.80;88.40;;;14.53;61.79;100881.94;5034430;28;20206;-55
2022/12/26 09:01:49;;;;;;;15.97;12.37;;;11.80;88.30;;;14.38;62.38;100880.47;5025061;28;20198;-53
2022/12/26 09:04:16;;;;;;;17.17;12.10;;;11.80;88.10;;;14.34;62.52;100887.97;5014390;28;20226;-53
2022/12/26 09:06:43;;;;;;;14.50;11.67;;;11.80;88.10;;;14.27;62.67;100882.59;5014699;28;20203;-54
2022/12/26 09:09:11;;;;;;;14.00;11.13;;;11.80;88.10;;;14.21;62.51;100885.22;5032904;28;20218;-52
2022/12/26 09:11:41;;;;;;;14.90;12.33;;;11.70;88.10;;;14.18;62.88;100883.78;5034699;28;20190;-55
2022/12/26 09:14:10;;;;;;;14.80;12.07;;;11.70;88.20;;;14.15;63.07;100880.69;5034614;28;20194;-55
2022/12/26 09:16:41;;;;;;;12.80;11.50;;;11.70;88.20;;;14.14;62.89;100887.00;5034518;28;20209;-55
2022/12/26 09:19:17;;;;;;;15.43;12.00;;;11.70;88.30;;;14.16;62.87;100884.97;5034255;28;20296;-55
2022/12/26 09:21:45;;;;;;;14.60;12.70;;;11.70;88.30;;;14.10;63.01;100877.78;5034513;28;20194;-55
2022/12/26 09:24:14;;;;;;;14.47;12.80;;;11.60;88.30;;;14.12;62.80;100884.53;5034617;28;20570;-52
2022/12/26 09:26:44;;;;;;;15.77;12.90;;;11.70;88.40;;;14.20;62.96;100881.75;5034461;28;20220;-54
2022/12/26 09:29:12;;;;;;;13.87;12.07;;;11.70;88.60;;;14.31;62.60;100882.25;5024587;28;20238;-52
2022/12/26 09:31:39;;;;;;;15.70;13.40;;;11.70;88.60;;;14.29;62.32;100882.41;5014643;28;20198;-52
2022/12/26 09:34:07;;;;;;;14.53;11.60;;;11.60;88.30;;;14.35;62.56;100881.66;5020397;28;20217;-53
2022/12/26 09:36:37;;;;;;;15.70;13.80;;;11.70;88.50;;;14.44;62.47;100875.19;5034576;28;20194;-53
2022/12/26 09:39:05;;;;;;;17.03;13.00;;;11.70;88.40;;;14.51;62.06;100873.38;5033434;28;20214;-52
2022/12/26 09:41:58;;;;;;;14.43;12.87;;;11.80;88.50;;;14.53;62.03;100866.06;5033018;28;20695;-54
2022/12/26 09:44:43;;;;;;;15.83;13.30;;;11.80;88.20;;;14.52;61.80;100861.78;5034159;28;20186;-53
2022/12/26 09:47:30;;;;;;;12.60;10.80;;;11.80;88.00;;;14.58;61.55;100862.81;5025458;28;20194;-53
2022/12/26 09:50:08;;;;;;;12.63;11.33;;;11.80;88.20;;;14.66;61.58;100862.66;5033578;28;20210;-54
2022/12/26 09:52:43;;;;;;;13.93;11.77;;;11.90;88.20;;;14.71;61.21;100860.25;5041399;28;20179;-52
2022/12/26 09:55:29;;;;;;;15.83;13.07;;;11.90;87.80;;;14.67;61.15;100857.16;5033558;28;20186;-54
2022/12/26 09:58:07;;;;;;;14.13;11.53;;;11.90;87.40;;;14.72;60.92;100857.38;5033737;28;20185;-53
2022/12/26 10:00:44;;;;;;;14.43;11.53;;;12.00;87.30;;;14.75;61.00;100854.34;5029085;28;20273;-54
2022/12/26 10:03:11;;;;;;;14.60;10.67;;;12.00;87.30;;;14.83;61.08;100848.84;5014163;28;20211;-55
2022/12/26 10:06:00;;;;;;;14.10;12.20;;;12.00;87.40;;;14.91;60.19;100851.31;5014009;28;20195;-54
2022/12/26 10:09:07;;;;;;;13.40;11.27;;;12.10;87.20;;;14.94;60.40;100852.75;5025759;28;20225;-53
2022/12/26 10:11:55;;;;;;;12.70;10.10;;;12.10;86.50;;;15.02;60.16;100843.81;5033519;28;20232;-52
2022/12/26 10:14:39;;;;;;;11.90;10.17;;;12.20;86.40;;;15.17;60.19;100842.59;5033401;28;20197;-54
2022/12/26 10:17:18;;;;;;;10.87;9.70;;;12.30;86.60;;;15.28;59.76;100849.16;5032584;28;20195;-53
2022/12/26 10:20:04;;;;;;;11.80;9.33;;;12.40;86.10;;;15.31;59.13;100848.75;5033289;28;20621;-53
2022/12/26 10:23:00;;;;;;;11.43;9.23;;;12.40;85.70;;;15.29;58.89;100850.78;5033556;28;20213;-54
2022/12/26 10:25:41;;;;;;;11.97;9.73;;;12.40;85.30;;;15.25;59.21;100838.94;5007404;28;20206;-54
2022/12/26 10:28:21;;;;;;;10.57;7.90;;;12.50;84.70;;;15.24;59.01;100842.63;5033348;28;20279;-53
2022/12/26 10:30:53;;;;;;;9.37;8.47;;;12.50;84.70;;;15.26;58.78;100836.09;5033096;28;20551;-53
2022/12/26 10:33:37;;;;;;;10.47;9.33;;;12.50;84.60;;;15.21;59.01;100832.44;5032229;28;20191;-56
2022/12/26 10:36:04;;;;;;;12.60;9.60;;;12.50;84.50;;;15.08;58.88;100824.44;5033269;28;20190;-53
2022/12/26 10:38:39;;;;;;;9.30;7.53;;;12.50;84.00;;;15.05;58.92;100822.22;5033168;28;20225;-52
2022/12/26 10:41:17;;;;;;;10.43;8.80;;;12.50;84.00;;;15.12;58.79;100817.75;5033245;28;20866;-54
2022/12/26 10:43:44;;;;;;;9.17;7.30;;;12.50;83.60;;;15.20;58.95;100817.53;5033302;28;20194;-56
2022/12/26 10:46:45;;;;;;;9.63;7.60;;;12.60;83.90;;;15.34;58.35;100821.81;5033341;28;20194;-54
2022/12/26 10:49:17;;;;;;;10.10;7.60;;;12.60;83.80;;;15.42;58.52;100825.09;5026896;28;20272;-55
2022/12/26 10:51:44;;;;;;;6.60;5.90;;;12.70;83.50;;;15.55;58.25;100848.19;5015032;28;20195;-53
2022/12/26 10:54:16;;;;;;;6.73;6.10;;;12.70;83.70;;;15.65;58.10;100840.63;5017169;28;20516;-53
2022/12/26 10:56:46;;;;;;;9.20;6.60;;;12.80;83.60;;;15.70;58.08;100837.34;5017711;28;20191;-55
2022/12/26 10:59:17;;;;;;;7.30;6.60;;;12.80;83.50;;;15.63;57.65;100832.06;5020007;28;20218;-55
2022/12/26 11:01:46;;;;;;;9.40;6.23;;;12.80;83.00;;;15.64;57.72;100839.00;5036495;28;20218;-55
2022/12/26 11:04:21;;;;;;;6.73;6.00;;;12.90;83.10;;;15.64;57.66;100836.38;5037212;28;20544;-53
2022/12/26 11:07:11;;;;;;;10.17;6.60;;;12.90;83.10;;;15.47;57.73;100835.13;5019141;28;20276;-55
2022/12/26 11:09:44;;;;;;;8.00;6.20;;;12.80;82.40;;;15.46;58.00;100829.00;5036881;28;20249;-53
2022/12/26 11:12:21;;;;;;;9.33;6.73;;;12.90;82.60;;;15.41;57.90;100830.59;5035583;28;20182;-53
2022/12/26 11:14:55;;;;;;;6.63;5.83;;;12.80;82.70;;;15.35;58.18;100826.13;5036885;28;20201;-53
2022/12/26 11:17:31;;;;;;;6.17;5.57;;;12.80;82.70;;;15.23;58.43;100819.78;5036738;28;20187;-53
2022/12/26 11:20:29;;;;;;;7.10;5.27;;;12.80;83.40;;;15.23;58.51;100825.91;5036205;28;20220;-53
2022/12/26 11:23:21;;;;;;;5.93;5.33;;;12.80;83.10;;;15.23;58.44;100828.56;5034309;28;20257;-53
2022/12/26 11:25:51;;;;;;;5.80;5.03;;;12.70;82.90;;;15.32;58.32;100832.63;5036498;28;20198;-54
2022/12/26 11:28:25;;;;;;;9.13;5.03;;;12.70;83.10;;;15.38;58.47;100831.03;5036562;28;20190;-53
2022/12/26 11:30:53;;;;;;;6.73;5.00;;;12.70;83.40;;;15.42;58.23;100824.28;5036518;28;20189;-53
2022/12/26 11:33:26;;;;;;;8.03;5.40;;;12.70;83.50;;;15.39;58.22;100830.81;5036939;28;20562;-55
2022/12/26 11:36:04;;;;;;;7.53;5.23;;;12.70;83.60;;;15.43;58.37;100839.16;5036571;28;20347;-54
2022/12/26 11:38:43;;;;;;;6.90;4.90;;;12.70;83.80;;;15.41;58.54;100825.28;5019863;28;20679;-55
2022/12/26 11:41:31;;;;;;;7.53;5.13;;;12.70;84.00;;;15.36;58.76;100825.91;5016459;28;20575;-55
2022/12/26 11:44:11;;;;;;;4.57;4.00;;;12.70;84.10;;;15.34;58.81;100825.28;5016810;28;20187;-56
2022/12/26 11:46:42;;;;;;;4.40;3.97;;;12.70;84.10;;;15.39;58.85;100836.13;5016218;28;20606;-55
2022/12/26 11:49:21;;;;;;;4.67;3.77;;;12.70;84.20;;;15.40;58.74;100832.41;5029262;28;20210;-55
2022/12/26 11:51:50;;;;;;;5.30;4.00;;;12.70;84.30;;;15.34;58.73;100829.78;5036023;28;20183;-59
2022/12/26 11:54:35;;;;;;;4.27;3.60;;;12.70;84.30;;;15.31;58.78;100833.66;5024920;28;20198;-54
2022/12/26 11:57:14;;;;;;;4.73;3.73;;;12.70;84.60;;;15.33;59.13;100830.81;5016098;28;20201;-53
2022/12/26 11:59:41;;;;;;;5.93;3.60;;;12.60;84.60;;;15.36;58.76;100825.06;5023384;28;20221;-52
2022/12/26 12:02:27;;;;;;;3.17;2.83;;;12.60;84.60;;;15.34;58.61;100827.13;5035715;28;20225;-54
2022/12/26 12:05:01;;;;;;;5.67;3.83;;;12.60;84.70;;;15.32;59.12;100834.47;5035607;28;20190;-52
2022/12/26 12:07:51;;;;;;;3.67;3.33;;;12.60;84.30;;;15.30;58.80;100836.50;5035779;28;20198;-52
2022/12/26 12:10:49;;;;;;;4.90;3.13;;;12.70;84.40;;;15.30;58.90;100847.13;5020295;28;20218;-52
2022/12/26 12:13:54;;;;;;;4.87;3.23;;;12.60;84.10;;;15.26;57.88;100840.59;5015929;28;20183;-53
2022/12/26 12:16:38;;;;;;;3.17;2.87;;;12.60;83.90;;;15.29;58.42;100850.78;5008374;28;20217;-53
2022/12/26 12:19:24;;;;;;;3.07;2.70;;;12.60;83.50;;;15.32;58.32;100848.56;5015449;28;20294;-54
2022/12/26 12:22:14;;;;;;;4.17;2.67;;;12.60;83.40;;;15.32;57.87;100845.91;5015479;28;20199;-53
2022/12/26 12:25:12;;;;;;;3.30;3.00;;;12.60;82.80;;;15.28;57.46;100851.81;5015650;28;20230;-54
2022/12/26 12:27:50;;;;;;;2.43;2.03;;;12.60;81.70;;;15.33;56.99;100860.00;5034965;28;20193;-53